createdAt,value
2022-09-07T00:02:23.373Z,18.40
2022-09-07T00:04:50.065Z,18.50
2022-09-07T00:07:16.800Z,18.40
2022-09-07T00:09:43.647Z,17.90
2022-09-07T00:12:10.392Z,18.60
2022-09-07T00:14:37.111Z,18.50
2022-09-07T00:17:03.832Z,17.90
2022-09-07T00:19:30.679Z,18.70
2022-09-07T00:21:57.359Z,18.20
2022-09-07T00:24:24.115Z,18.30
2022-09-07T00:26:50.925Z,18.10
2022-09-07T00:29:17.705Z,18.90
2022-09-07T00:31:44.461Z,19.00
2022-09-07T00:34:11.244Z,18.40
2022-09-07T00:36:37.964Z,18.20
2022-09-07T00:39:05.029Z,18.80
2022-09-07T00:41:32.001Z,18.90
2022-09-07T00:44:57.204Z,17.90
2022-09-07T00:47:55.933Z,18.00
2022-09-07T00:50:31.793Z,18.10
2022-09-07T00:53:07.113Z,17.80
2022-09-07T00:55:35.558Z,17.90
2022-09-07T00:58:03.460Z,18.40
2022-09-07T01:00:31.326Z,18.30
2022-09-07T01:02:59.798Z,18.90
2022-09-07T01:05:43.642Z,19.30
2022-09-07T01:08:12.134Z,18.50
2022-09-07T01:10:39.142Z,18.60
2022-09-07T01:13:06.358Z,18.60
2022-09-07T01:16:10.324Z,18.40
2022-09-07T01:19:00.102Z,18.20
2022-09-07T01:21:48.497Z,18.00
2022-09-07T01:24:53.706Z,18.30
2022-09-07T01:27:44.417Z,18.10
2022-09-07T01:30:21.520Z,18.40
2022-09-07T01:33:22.996Z,18.30
2022-09-07T01:36:18.769Z,18.10
2022-09-07T01:38:50.419Z,18.00
2022-09-07T01:41:25.280Z,18.20
2022-09-07T01:44:13.354Z,17.60
2022-09-07T01:47:01.458Z,17.60
2022-09-07T01:49:45.512Z,17.80
2022-09-07T01:52:25.975Z,18.20
2022-09-07T01:54:57.532Z,18.10
2022-09-07T01:57:51.586Z,18.40
2022-09-07T02:00:19.680Z,18.30
2022-09-07T02:02:52.401Z,18.00
2022-09-07T02:05:27.870Z,17.70
2022-09-07T02:08:00.482Z,17.20
2022-09-07T02:10:33.239Z,17.40
2022-09-07T02:13:10.478Z,17.30
2022-09-07T02:15:52.130Z,17.20
2022-09-07T02:18:21.836Z,17.50
2022-09-07T02:20:52.450Z,17.40
2022-09-07T02:23:22.935Z,17.50
2022-09-07T02:25:55.934Z,17.50
2022-09-07T02:28:26.896Z,17.30
2022-09-07T02:30:53.760Z,17.20
2022-09-07T02:33:20.825Z,17.20
2022-09-07T02:35:47.660Z,17.30
2022-09-07T02:38:14.441Z,17.40
2022-09-07T02:40:41.199Z,17.20
2022-09-07T02:43:10.186Z,17.20
2022-09-07T02:46:16.610Z,17.10
2022-09-07T02:49:28.103Z,17.30
2022-09-07T02:52:13.202Z,17.40
2022-09-07T02:55:08.220Z,17.60
2022-09-07T02:58:04.647Z,17.40
2022-09-07T03:00:35.571Z,17.50
2022-09-07T03:03:20.328Z,17.60
2022-09-07T03:05:59.018Z,17.40
2022-09-07T03:08:32.089Z,17.20
2022-09-07T03:10:59.394Z,17.20
2022-09-07T03:13:28.465Z,17.40
2022-09-07T03:15:56.484Z,17.20
2022-09-07T03:18:25.402Z,17.20
2022-09-07T03:20:52.287Z,17.20
2022-09-07T03:23:19.111Z,17.30
2022-09-07T03:25:45.974Z,17.50
2022-09-07T03:28:12.731Z,17.70
2022-09-07T03:30:47.319Z,17.60
2022-09-07T03:33:17.520Z,17.80
2022-09-07T03:35:45.796Z,17.70
2022-09-07T03:38:12.844Z,17.80
2022-09-07T03:40:39.589Z,17.30
2022-09-07T03:43:06.286Z,17.30
2022-09-07T03:45:33.081Z,17.30
2022-09-07T03:47:59.798Z,17.20
2022-09-07T03:50:26.602Z,17.10
2022-09-07T03:52:53.265Z,17.20
2022-09-07T03:55:20.197Z,17.10
2022-09-07T03:57:46.924Z,17.20
2022-09-07T04:00:14.283Z,17.20
2022-09-07T04:02:41.055Z,17.20
2022-09-07T04:05:08.268Z,17.00
2022-09-07T04:07:35.065Z,16.90
2022-09-07T04:10:02.102Z,17.00
2022-09-07T04:12:28.876Z,17.00
2022-09-07T04:14:55.750Z,17.30
2022-09-07T04:17:22.453Z,17.40
2022-09-07T04:19:49.145Z,17.20
2022-09-07T04:22:15.959Z,17.20
2022-09-07T04:24:42.728Z,17.00
2022-09-07T04:27:09.391Z,16.80
2022-09-07T04:29:36.135Z,16.60
2022-09-07T04:32:02.936Z,16.60
2022-09-07T04:34:29.705Z,16.50
2022-09-07T04:36:56.447Z,16.50
2022-09-07T04:39:23.189Z,16.50
2022-09-07T04:41:49.895Z,16.60
2022-09-07T04:44:17.191Z,16.60
2022-09-07T04:46:44.090Z,16.70
2022-09-07T04:49:11.836Z,16.50
2022-09-07T04:51:39.859Z,16.50
2022-09-07T04:54:07.077Z,16.50
2022-09-07T04:56:34.481Z,16.40
2022-09-07T04:59:02.516Z,16.40
2022-09-07T05:01:29.697Z,16.40
2022-09-07T05:03:59.092Z,16.30
2022-09-07T05:06:25.981Z,16.50
2022-09-07T05:08:53.894Z,16.40
2022-09-07T05:11:28.679Z,16.30
2022-09-07T05:14:00.113Z,16.30
2022-09-07T05:16:28.085Z,16.30
2022-09-07T05:19:01.429Z,16.30
2022-09-07T05:21:31.445Z,16.30
2022-09-07T05:23:59.820Z,16.30
2022-09-07T05:26:29.849Z,16.20
2022-09-07T05:31:44.886Z,16.20
2022-09-07T05:36:58.905Z,16.10
2022-09-07T05:39:25.913Z,16.10
2022-09-07T05:41:52.781Z,16.20
2022-09-07T05:47:06.952Z,16.20
2022-09-07T05:49:33.662Z,16.20
2022-09-07T05:52:00.373Z,16.10
2022-09-07T05:54:27.179Z,16.20
2022-09-07T05:56:53.848Z,17.10
2022-09-07T05:59:20.684Z,18.10
2022-09-07T06:01:47.541Z,18.70
2022-09-07T06:04:14.304Z,19.10
2022-09-07T06:06:41.003Z,19.50
2022-09-07T06:09:08.007Z,19.80
2022-09-07T06:11:36.392Z,20.00
2022-09-07T06:14:03.215Z,20.00
2022-09-07T06:16:30.085Z,19.80
2022-09-07T06:18:57.879Z,19.70
2022-09-07T06:21:24.998Z,19.90
2022-09-07T06:23:51.879Z,20.00
2022-09-07T06:26:19.707Z,20.10
2022-09-07T06:28:52.866Z,20.10
2022-09-07T06:31:23.389Z,20.40
2022-09-07T06:33:52.240Z,20.70
2022-09-07T06:36:21.485Z,20.60
2022-09-07T06:38:49.307Z,20.60
2022-09-07T06:44:12.339Z,20.70
2022-09-07T06:49:26.432Z,20.70
2022-09-07T06:51:53.232Z,20.80
2022-09-07T06:57:09.296Z,21.10
2022-09-07T06:59:37.011Z,21.50
2022-09-07T07:02:04.930Z,21.50
2022-09-07T07:04:34.103Z,21.90
2022-09-07T07:07:03.174Z,22.10
2022-09-07T07:09:30.940Z,22.20
2022-09-07T07:11:57.624Z,22.10
2022-09-07T07:14:24.388Z,22.10
2022-09-07T07:16:51.194Z,22.10
2022-09-07T07:19:17.965Z,22.00
2022-09-07T07:22:07.952Z,22.20
2022-09-07T07:24:31.918Z,22.20
2022-09-07T07:27:00.267Z,22.30
2022-09-07T07:29:28.199Z,22.50
2022-09-07T07:31:55.198Z,22.60
2022-09-07T07:34:23.179Z,22.80
2022-09-07T07:36:49.886Z,22.70
2022-09-07T07:42:05.578Z,22.90
2022-09-07T07:44:32.732Z,23.00
2022-09-07T07:46:59.521Z,23.00
2022-09-07T07:49:26.791Z,22.90
2022-09-07T07:54:45.142Z,22.90
2022-09-07T07:57:12.343Z,22.90
2022-09-07T07:59:40.276Z,22.90
2022-09-07T08:02:08.720Z,23.00
2022-09-07T08:04:35.993Z,23.30
2022-09-07T08:07:09.733Z,23.40
2022-09-07T08:09:44.999Z,23.20
2022-09-07T08:12:14.375Z,23.20
2022-09-07T08:14:41.661Z,23.40
2022-09-07T08:17:13.733Z,23.40
2022-09-07T08:19:40.929Z,23.40
2022-09-07T08:22:09.043Z,23.40
2022-09-07T08:24:35.811Z,23.70
2022-09-07T08:27:02.761Z,24.00
2022-09-07T08:29:35.331Z,23.90
2022-09-07T08:32:04.030Z,23.60
2022-09-07T08:34:30.859Z,23.50
2022-09-07T08:36:57.637Z,23.40
2022-09-07T08:39:24.460Z,23.40
2022-09-07T08:42:29.241Z,23.40
2022-09-07T08:45:09.218Z,23.20
2022-09-07T08:47:46.983Z,23.30
2022-09-07T08:50:35.731Z,23.30
2022-09-07T08:53:16.604Z,23.40
2022-09-07T08:55:51.813Z,23.30
2022-09-07T08:58:47.826Z,23.40
2022-09-07T09:04:24.131Z,23.70
2022-09-07T09:06:10.830Z,23.60
2022-09-07T09:06:58.235Z,23.50
2022-09-07T09:09:33.816Z,23.60
2022-09-07T09:12:18.157Z,23.60
2022-09-07T09:14:56.919Z,23.70
2022-09-07T09:17:29.540Z,23.60
2022-09-07T09:20:26.693Z,23.80
2022-09-07T09:23:01.650Z,23.80
2022-09-07T09:25:37.015Z,23.70
2022-09-07T09:28:03.698Z,23.70
2022-09-07T09:30:31.213Z,23.60
2022-09-07T09:33:17.185Z,23.60
2022-09-07T09:35:46.080Z,23.70
2022-09-07T09:38:34.128Z,23.60
2022-09-07T09:41:07.853Z,23.70
2022-09-07T09:43:53.650Z,23.60
2022-09-07T09:46:33.451Z,23.70
2022-09-07T09:49:15.743Z,23.70
2022-09-07T09:54:42.041Z,23.70
2022-09-07T10:01:20.473Z,23.70
2022-09-07T10:06:18.389Z,23.70
2022-09-07T10:09:00.136Z,23.70
2022-09-07T10:14:42.034Z,23.80
2022-09-07T10:17:27.525Z,23.90
2022-09-07T10:20:02.017Z,23.90
2022-09-07T10:22:36.022Z,23.90
2022-09-07T10:25:28.449Z,24.10
2022-09-07T10:28:02.857Z,23.90
2022-09-07T10:30:49.599Z,23.90
2022-09-07T10:33:28.678Z,23.90
2022-09-07T10:36:29.427Z,24.10
2022-09-07T10:39:03.263Z,24.10
2022-09-07T10:42:07.782Z,24.10
2022-09-07T10:44:59.357Z,24.10
2022-09-07T10:47:43.544Z,24.10
2022-09-07T10:50:31.805Z,24.10
2022-09-07T10:53:40.977Z,24.30
2022-09-07T10:56:11.709Z,24.30
2022-09-07T10:59:25.088Z,24.30
2022-09-07T11:02:13.510Z,24.30
2022-09-07T11:04:47.421Z,24.20
2022-09-07T11:07:32.695Z,24.30
2022-09-07T11:10:22.002Z,24.40
2022-09-07T11:12:51.671Z,24.30
2022-09-07T11:15:31.495Z,24.50
2022-09-07T11:18:05.851Z,24.40
2022-09-07T11:21:01.022Z,24.30
2022-09-07T11:23:41.551Z,24.40
2022-09-07T11:26:29.372Z,24.40
2022-09-07T11:32:11.743Z,24.50
2022-09-07T11:34:46.619Z,24.50
2022-09-07T11:37:30.954Z,24.50
2022-09-07T11:40:17.738Z,24.50
2022-09-07T11:43:05.444Z,24.40
2022-09-07T11:45:40.037Z,24.50
2022-09-07T11:48:19.377Z,24.50
2022-09-07T11:50:52.641Z,24.60
2022-09-07T11:53:24.106Z,24.70
2022-09-07T11:55:58.979Z,24.60
2022-09-07T11:58:47.697Z,24.60
2022-09-07T12:01:45.259Z,24.60
2022-09-07T12:04:27.461Z,24.70
2022-09-07T12:07:24.831Z,24.70
2022-09-07T12:09:54.320Z,24.60
2022-09-07T12:12:56.717Z,24.60
2022-09-07T12:15:41.749Z,24.60
2022-09-07T12:18:47.443Z,24.70
2022-09-07T12:21:45.123Z,24.80
2022-09-07T12:24:37.023Z,24.70
2022-09-07T12:27:11.349Z,24.80
2022-09-07T12:29:38.310Z,24.70
2022-09-07T12:32:53.411Z,24.70
2022-09-07T12:34:53.340Z,24.70
2022-09-07T12:37:39.141Z,24.80
2022-09-07T12:40:30.676Z,24.70
2022-09-07T12:43:12.893Z,24.80
2022-09-07T12:45:39.515Z,24.90
2022-09-07T12:48:15.492Z,24.90
2022-09-07T12:50:51.163Z,24.80
2022-09-07T12:53:36.602Z,24.90
2022-09-07T12:56:27.687Z,24.70
2022-09-07T12:59:29.667Z,24.90
2022-09-07T13:02:21.850Z,24.90
2022-09-07T13:05:10.439Z,25.00
2022-09-07T13:08:09.903Z,25.20
2022-09-07T13:10:39.471Z,25.20
2022-09-07T13:13:18.318Z,25.10
2022-09-07T13:15:49.307Z,25.00
2022-09-07T13:18:28.374Z,25.20
2022-09-07T13:21:07.199Z,25.20
2022-09-07T13:23:37.917Z,25.20
2022-09-07T13:26:08.676Z,25.20
2022-09-07T13:28:56.064Z,24.90
2022-09-07T13:31:47.461Z,24.90
2022-09-07T13:34:36.097Z,24.90
2022-09-07T13:37:05.569Z,25.00
2022-09-07T13:39:44.926Z,25.00
2022-09-07T13:42:24.391Z,25.10
2022-09-07T13:44:55.331Z,25.00
2022-09-07T13:47:33.782Z,25.00
2022-09-07T13:50:25.081Z,25.10
2022-09-07T13:52:59.167Z,25.10
2022-09-07T13:55:36.971Z,25.10
2022-09-07T13:58:26.103Z,25.10
2022-09-07T14:00:59.668Z,25.20
2022-09-07T14:03:30.164Z,25.10
2022-09-07T14:06:15.533Z,25.10
2022-09-07T14:08:49.822Z,25.10
2022-09-07T14:11:24.852Z,25.20
2022-09-07T14:14:16.224Z,25.20
2022-09-07T14:16:49.087Z,25.00
2022-09-07T14:19:25.690Z,24.90
2022-09-07T14:21:57.592Z,25.00
2022-09-07T14:24:39.801Z,25.20
2022-09-07T14:27:32.244Z,25.30
2022-09-07T14:30:30.297Z,25.40
2022-09-07T14:33:01.736Z,25.30
2022-09-07T14:35:33.520Z,25.30
2022-09-07T14:41:17.562Z,25.10
2022-09-07T14:44:00.859Z,25.10
2022-09-07T14:46:34.156Z,25.00
2022-09-07T14:49:04.913Z,25.20
2022-09-07T14:51:36.780Z,25.00
2022-09-07T14:54:08.065Z,24.90
2022-09-07T14:56:40.201Z,25.00
2022-09-07T14:59:36.684Z,25.20
2022-09-07T15:02:19.011Z,25.10
2022-09-07T15:04:47.497Z,25.00
2022-09-07T15:07:37.507Z,25.00
2022-09-07T15:10:23.221Z,25.10
2022-09-07T15:12:52.133Z,24.90
2022-09-07T15:15:18.740Z,24.80
2022-09-07T15:17:45.753Z,25.00
2022-09-07T15:20:38.528Z,25.00
2022-09-07T15:23:13.796Z,25.20
2022-09-07T15:25:46.517Z,25.20
2022-09-07T15:34:12.227Z,25.20
2022-09-07T15:36:42.752Z,25.20
2022-09-07T15:39:35.772Z,25.30
2022-09-07T15:42:59.477Z,25.10
2022-09-07T15:44:50.608Z,24.90
2022-09-07T15:50:05.936Z,24.90
2022-09-07T15:52:32.926Z,25.00
2022-09-07T15:54:59.719Z,25.10
2022-09-07T16:00:14.094Z,24.80
2022-09-07T16:05:31.145Z,24.80
2022-09-07T16:10:45.035Z,24.90
2022-09-07T16:13:16.675Z,24.90
2022-09-07T16:15:48.832Z,25.10
2022-09-07T16:18:17.580Z,25.20
2022-09-07T16:20:44.999Z,25.20
2022-09-07T16:23:14.569Z,25.00
2022-09-07T16:25:43.204Z,25.10
2022-09-07T16:28:10.557Z,25.20
2022-09-07T16:30:40.967Z,25.10
2022-09-07T16:33:08.051Z,25.10
2022-09-07T16:35:34.898Z,25.20
2022-09-07T16:40:50.859Z,25.10
2022-09-07T16:43:17.723Z,25.20
2022-09-07T16:48:32.320Z,25.20
2022-09-07T16:51:02.416Z,25.20
2022-09-07T16:53:31.402Z,25.10
2022-09-07T16:56:03.158Z,25.10
2022-09-07T16:58:38.491Z,25.20
2022-09-07T17:01:06.784Z,25.20
2022-09-07T17:03:34.664Z,25.20
2022-09-07T17:06:02.804Z,25.20
2022-09-07T17:08:29.853Z,25.20
2022-09-07T17:11:00.947Z,25.20
2022-09-07T17:13:28.335Z,25.10
2022-09-07T17:15:55.103Z,25.10
2022-09-07T17:19:28.966Z,25.10
2022-09-07T17:21:09.794Z,25.10
2022-09-07T17:23:45.655Z,25.00
2022-09-07T17:26:19.919Z,25.00
2022-09-07T17:28:50.080Z,25.10
2022-09-07T17:34:07.308Z,25.00
2022-09-07T17:36:34.496Z,24.90
2022-09-07T17:39:18.438Z,24.70
2022-09-07T17:41:47.642Z,24.50
2022-09-07T17:44:14.512Z,24.40
2022-09-07T17:46:41.293Z,24.30
2022-09-07T17:49:12.350Z,24.20
2022-09-07T17:51:39.645Z,24.20
2022-09-07T17:54:11.621Z,24.00
2022-09-07T17:56:39.878Z,23.90
2022-09-07T18:01:54.149Z,24.10
2022-09-07T18:04:21.339Z,24.50
2022-09-07T18:06:48.275Z,24.60
2022-09-07T18:09:15.036Z,24.60
2022-09-07T18:11:45.546Z,24.60
2022-09-07T18:14:14.584Z,24.60
2022-09-07T18:16:42.549Z,24.70
2022-09-07T18:19:11.078Z,24.60
2022-09-07T18:21:39.327Z,24.60
2022-09-07T18:24:17.863Z,24.60
2022-09-07T18:26:50.174Z,24.60
2022-09-07T18:29:28.725Z,24.60
2022-09-07T18:31:57.022Z,24.60
2022-09-07T18:34:24.044Z,24.50
2022-09-07T18:36:51.118Z,24.50
2022-09-07T18:39:18.206Z,24.40
2022-09-07T18:41:44.984Z,24.40
2022-09-07T18:46:58.473Z,24.40
2022-09-07T18:49:25.293Z,24.30
2022-09-07T18:54:41.376Z,24.30
2022-09-07T18:57:08.706Z,24.20
2022-09-07T18:59:35.567Z,24.20
2022-09-07T19:02:04.904Z,24.20
2022-09-07T19:07:27.337Z,24.20
2022-09-07T19:09:58.138Z,24.10
2022-09-07T19:12:25.000Z,24.10
2022-09-07T19:14:51.824Z,24.10
2022-09-07T19:17:19.787Z,24.10
2022-09-07T19:19:46.716Z,24.00
2022-09-07T19:22:13.364Z,24.10
2022-09-07T19:24:40.121Z,24.20
2022-09-07T19:27:07.226Z,24.10
2022-09-07T19:29:34.338Z,24.10
2022-09-07T19:32:07.737Z,24.20
2022-09-07T19:34:42.385Z,24.10
2022-09-07T19:37:11.329Z,24.00
2022-09-07T19:39:38.132Z,24.00
2022-09-07T19:42:06.019Z,23.90
2022-09-07T19:44:33.424Z,23.90
2022-09-07T19:47:00.898Z,23.90
2022-09-07T19:49:28.225Z,23.90
2022-09-07T19:51:54.989Z,23.90
2022-09-07T19:54:21.962Z,23.80
2022-09-07T19:56:50.979Z,23.80
2022-09-07T19:59:19.697Z,23.80
2022-09-07T20:01:48.311Z,23.70
2022-09-07T20:04:20.667Z,23.70
2022-09-07T20:06:50.132Z,23.60
2022-09-07T20:09:20.659Z,23.60
2022-09-07T20:11:48.260Z,23.70
2022-09-07T20:14:19.040Z,23.80
2022-09-07T20:16:45.803Z,23.90
2022-09-07T20:19:14.929Z,23.90
2022-09-07T20:21:42.614Z,23.90
2022-09-07T20:24:12.209Z,23.80
2022-09-07T20:26:38.904Z,23.80
2022-09-07T20:29:26.053Z,23.80
2022-09-07T20:31:53.689Z,23.80
2022-09-07T20:34:20.585Z,23.80
2022-09-07T20:36:49.694Z,23.70
2022-09-07T20:39:16.725Z,23.70
2022-09-07T20:41:43.383Z,23.70
2022-09-07T20:44:10.480Z,23.70
2022-09-07T20:46:37.468Z,23.70
2022-09-07T20:49:05.289Z,23.70
2022-09-07T20:51:32.022Z,23.70
2022-09-07T20:53:58.755Z,23.70
2022-09-07T20:56:27.831Z,23.70
2022-09-07T20:59:00.127Z,23.70
2022-09-07T21:01:28.666Z,23.70
2022-09-07T21:03:58.045Z,23.60
2022-09-07T21:06:26.168Z,23.60
2022-09-07T21:08:54.220Z,23.60
2022-09-07T21:11:23.639Z,23.60
2022-09-07T21:13:59.323Z,23.60
2022-09-07T21:16:26.847Z,23.60
2022-09-07T21:18:58.463Z,23.60
2022-09-07T21:21:27.177Z,23.50
2022-09-07T21:24:01.358Z,23.40
2022-09-07T21:26:28.872Z,23.40
2022-09-07T21:29:00.430Z,23.40
2022-09-07T21:31:29.106Z,23.40
2022-09-07T21:33:57.844Z,23.40
2022-09-07T21:36:24.989Z,23.40
2022-09-07T21:38:52.122Z,23.40
2022-09-07T21:41:20.597Z,23.40
2022-09-07T21:43:47.520Z,23.30
2022-09-07T21:46:17.410Z,23.30
2022-09-07T21:48:47.277Z,23.30
2022-09-07T21:51:14.709Z,23.30
2022-09-07T21:53:42.220Z,23.30
2022-09-07T21:56:14.037Z,23.30
2022-09-07T21:58:41.363Z,23.20
2022-09-07T22:01:11.266Z,23.30
2022-09-07T22:03:39.583Z,23.20
2022-09-07T22:06:07.256Z,23.10
2022-09-07T22:08:38.320Z,23.20
2022-09-07T22:11:07.532Z,23.20
2022-09-07T22:13:35.102Z,23.20
2022-09-07T22:16:03.441Z,23.20
2022-09-07T22:18:30.899Z,23.20
2022-09-07T22:21:09.275Z,23.20
2022-09-07T22:23:38.467Z,23.10
2022-09-07T22:26:06.194Z,23.10
2022-09-07T22:28:33.770Z,23.10
2022-09-07T22:31:09.444Z,23.10
2022-09-07T22:33:36.250Z,23.10
2022-09-07T22:36:17.041Z,23.10
2022-09-07T22:38:46.128Z,23.00
2022-09-07T22:41:19.106Z,23.00
2022-09-07T22:43:46.666Z,23.00
2022-09-07T22:46:14.579Z,23.00
2022-09-07T22:48:41.644Z,23.00
2022-09-07T22:51:09.007Z,23.00
2022-09-07T22:53:38.001Z,22.90
2022-09-07T22:56:18.487Z,22.80
2022-09-07T22:58:53.749Z,22.80
2022-09-07T23:01:23.547Z,22.80
2022-09-07T23:03:50.827Z,22.90
2022-09-07T23:06:26.627Z,22.90
2022-09-07T23:08:54.795Z,22.90
2022-09-07T23:11:23.974Z,23.00
2022-09-07T23:14:01.993Z,23.00
2022-09-07T23:16:29.300Z,23.00
2022-09-07T23:18:58.005Z,22.90
2022-09-07T23:21:25.231Z,22.90
2022-09-07T23:23:53.359Z,22.90
2022-09-07T23:26:22.279Z,22.80
2022-09-07T23:28:55.829Z,22.90
2022-09-07T23:31:23.456Z,22.80
2022-09-07T23:33:50.780Z,22.80
2022-09-07T23:36:18.406Z,22.80
2022-09-07T23:38:46.334Z,22.80
2022-09-07T23:41:17.352Z,22.80
2022-09-07T23:43:44.283Z,22.80
2022-09-07T23:46:12.300Z,22.70
2022-09-07T23:48:39.306Z,22.60
2022-09-07T23:51:06.129Z,22.60
2022-09-07T23:53:33.055Z,22.60
2022-09-07T23:55:59.768Z,22.80
2022-09-07T23:58:26.472Z,22.80
